Time;durP1;ratioP1;P1;durP2;ratioP2;P2;SDS_P1;SDS_P2;PMS_P1;PMS_P2;Temp;Humidity;BMP_temperature;BMP_pressure;BME280_temperature;BME280_humidity;BME280_pressure;Samples;Min_cycle;Max_cycle;Signal;HPM_P1;HPM_P2
2023/08/02 00:01:18;;;;;;;;;;;;;;;;;;5325885;28;19904;-70
2023/08/02 00:03:50;;;;;;;;;;;;;;;;;;5325188;28;20445;-72
2023/08/02 00:06:21;;;;;;;;;;;;;;;;;;5324971;28;19908;-71
2023/08/02 00:08:52;;;;;;;;;;;;;;;;;;5324605;28;20378;-71
2023/08/02 00:11:23;;;;;;;;;;;;;;;;;;5325187;28;19904;-71
2023/08/02 00:13:54;;;;;;;;;;;;;;;;;;5324550;28;19908;-70
2023/08/02 00:16:25;;;;;;;;;;;;;;;;;;5325077;28;20398;-70
2023/08/02 00:18:56;;;;;;;;;;;;;;;;;;5325035;28;19903;-70
2023/08/02 00:21:27;;;;;;;;;;;;;;;;;;5324151;28;19904;-70
2023/08/02 00:23:59;;;;;;;;;;;;;;;;;;5324875;28;19903;-70
2023/08/02 00:26:30;;;;;;;;;;;;;;;;;;5324029;28;20786;-70
2023/08/02 00:29:01;;;;;;;;;;;;;;;;;;5325293;28;19934;-70
2023/08/02 00:31:32;;;;;;;;;;;;;;;;;;5324744;28;20383;-71
2023/08/02 00:34:03;;;;;;;;;;;;;;;;;;5324159;28;19919;-71
2023/08/02 00:36:34;;;;;;;;;;;;;;;;;;5324601;28;19911;-71
2023/08/02 00:39:05;;;;;;;;;;;;;;;;;;5325249;28;20411;-71
2023/08/02 00:41:36;;;;;;;;;;;;;;;;;;5323527;28;19903;-71
2023/08/02 00:44:07;;;;;;;;;;;;;;;;;;5325023;28;19926;-72
2023/08/02 00:46:38;;;;;;;;;;;;;;;;;;5324268;28;19903;-72
2023/08/02 00:49:10;;;;;;;;;;;;;;;;;;5324333;28;19910;-72
2023/08/02 00:51:41;;;;;;;;;;;;;;;;;;5324628;28;19908;-71
2023/08/02 00:54:12;;;;;;;;;;;;;;;;;;5324982;28;19957;-70
2023/08/02 00:56:43;;;;;;;;;;;;;;;;;;5323337;28;20328;-71
2023/08/02 00:59:14;;;;;;;;;;;;;;;;;;5324805;28;19976;-71
2023/08/02 01:01:47;;;;;;;;;;;;;;;;;;5323186;28;19910;-71
2023/08/02 01:04:18;;;;;;;;;;;;;;;;;;5324423;28;19911;-71
2023/08/02 01:06:49;;;;;;;;;;;;;;;;;;5324161;28;19911;-71
2023/08/02 01:09:21;;;;;;;;;;;;;;;;;;5323484;28;19903;-71
2023/08/02 01:11:52;;;;;;;;;;;;;;;;;;5324013;28;19910;-70
2023/08/02 01:14:23;;;;;;;;;;;;;;;;;;5324400;28;20294;-71
2023/08/02 01:16:54;;;;;;;;;;;;;;;;;;5323320;28;19918;-71
2023/08/02 01:19:25;;;;;;;;;;;;;;;;;;5324373;28;19904;-70
2023/08/02 01:21:56;;;;;;;;;;;;;;;;;;5328559;28;20002;-70
2023/08/02 01:24:27;;;;;;;;;;;;;;;;;;5327998;28;19990;-70
2023/08/02 01:26:59;;;;;;;;;;;;;;;;;;5328708;28;20373;-70
2023/08/02 01:29:30;;;;;;;;;;;;;;;;;;5327669;28;19908;-71
2023/08/02 01:32:01;;;;;;;;;;;;;;;;;;5328741;28;19904;-70
2023/08/02 01:34:32;;;;;;;;;;;;;;;;;;5327939;28;19916;-70
2023/08/02 01:37:03;;;;;;;;;;;;;;;;;;5328079;28;19915;-70
2023/08/02 01:39:35;;;;;;;;;;;;;;;;;;5328036;28;20351;-70
2023/08/02 01:42:06;;;;;;;;;;;;;;;;;;5328567;28;19904;-70
2023/08/02 01:44:37;;;;;;;;;;;;;;;;;;5327104;28;20274;-70
2023/08/02 01:47:08;;;;;;;;;;;;;;;;;;5328533;28;19904;-71
2023/08/02 01:49:39;;;;;;;;;;;;;;;;;;5327926;28;20350;-70
2023/08/02 01:52:10;;;;;;;;;;;;;;;;;;5327492;28;19903;-70
2023/08/02 01:54:41;;;;;;;;;;;;;;;;;;5327585;28;19942;-70
2023/08/02 01:57:12;;;;;;;;;;;;;;;;;;5328114;28;19908;-70
2023/08/02 01:59:43;;;;;;;;;;;;;;;;;;5326653;28;20362;-70
2023/08/02 02:02:16;;;;;;;;;;;;;;;;;;5328291;28;19904;-70
2023/08/02 02:04:47;;;;;;;;;;;;;;;;;;5326793;28;19910;-71
2023/08/02 02:07:19;;;;;;;;;;;;;;;;;;5328250;28;19903;-70
2023/08/02 02:09:50;;;;;;;;;;;;;;;;;;5327257;28;19907;-70
2023/08/02 02:12:21;;;;;;;;;;;;;;;;;;5327017;28;19990;-70
2023/08/02 02:14:52;;;;;;;;;;;;;;;;;;5327285;28;19912;-69
2023/08/02 02:17:24;;;;;;;;;;;;;;;;;;5327674;28;19953;-70
2023/08/02 02:19:55;;;;;;;;;;;;;;;;;;5326639;28;19903;-70
2023/08/02 02:22:26;;;;;;;;;;;;;;;;;;5327443;28;19911;-69
2023/08/02 02:24:57;;;;;;;;;;;;;;;;;;5327268;28;19904;-69
2023/08/02 02:27:28;;;;;;;;;;;;;;;;;;5326642;28;19903;-69
2023/08/02 02:29:59;;;;;;;;;;;;;;;;;;5327252;28;19908;-69
2023/08/02 02:32:30;;;;;;;;;;;;;;;;;;5326653;28;19904;-70
2023/08/02 02:35:01;;;;;;;;;;;;;;;;;;5326556;28;19965;-69
2023/08/02 02:37:32;;;;;;;;;;;;;;;;;;5326898;28;19908;-70
2023/08/02 02:40:03;;;;;;;;;;;;;;;;;;5326616;28;19930;-71
2023/08/02 02:42:35;;;;;;;;;;;;;;;;;;5326558;28;19995;-70
2023/08/02 02:45:06;;;;;;;;;;;;;;;;;;5327206;28;20322;-69
2023/08/02 02:47:38;;;;;;;;;;;;;;;;;;5325895;28;19910;-70
2023/08/02 02:50:09;;;;;;;;;;;;;;;;;;5327431;28;20315;-70
2023/08/02 02:52:41;;;;;;;;;;;;;;;;;;5326997;28;19907;-70
2023/08/02 02:55:12;;;;;;;;;;;;;;;;;;5326406;28;20395;-70
2023/08/02 02:57:43;;;;;;;;;;;;;;;;;;5326389;28;20009;-70
2023/08/02 03:00:14;;;;;;;;;;;;;;;;;;5327210;28;20358;-70
2023/08/02 03:02:45;;;;;;;;;;;;;;;;;;5325507;28;19903;-70
2023/08/02 03:05:16;;;;;;;;;;;;;;;;;;5327057;28;19903;-70
2023/08/02 03:07:47;;;;;;;;;;;;;;;;;;5326253;28;19904;-70
2023/08/02 03:10:18;;;;;;;;;;;;;;;;;;5326005;28;19911;-70
2023/08/02 03:12:49;;;;;;;;;;;;;;;;;;5326318;28;19968;-70
2023/08/02 03:15:21;;;;;;;;;;;;;;;;;;5325986;28;19960;-70
2023/08/02 03:17:52;;;;;;;;;;;;;;;;;;5326072;28;20277;-70
2023/08/02 03:20:24;;;;;;;;;;;;;;;;;;5326451;28;19908;-71
2023/08/02 03:22:55;;;;;;;;;;;;;;;;;;5325445;28;19903;-71
2023/08/02 03:25:26;;;;;;;;;;;;;;;;;;5326329;28;19904;-71
2023/08/02 03:27:57;;;;;;;;;;;;;;;;;;5326217;28;20357;-71
2023/08/02 03:30:29;;;;;;;;;;;;;;;;;;5325412;28;19911;-71
2023/08/02 03:33:00;;;;;;;;;;;;;;;;;;5325944;28;19912;-71
2023/08/02 03:35:31;;;;;;;;;;;;;;;;;;5325532;28;19912;-71
2023/08/02 03:38:02;;;;;;;;;;;;;;;;;;5325542;28;19925;-71
2023/08/02 03:40:33;;;;;;;;;;;;;;;;;;5325418;28;19904;-72
2023/08/02 03:43:04;;;;;;;;;;;;;;;;;;5325549;28;19903;-71
2023/08/02 03:45:35;;;;;;;;;;;;;;;;;;5325048;28;19903;-71
2023/08/02 03:48:06;;;;;;;;;;;;;;;;;;5326255;28;19907;-71
2023/08/02 03:50:37;;;;;;;;;;;;;;;;;;5324596;28;19904;-71
2023/08/02 03:53:08;;;;;;;;;;;;;;;;;;5326106;28;19998;-71
2023/08/02 03:55:40;;;;;;;;;;;;;;;;;;5325020;28;19995;-71
2023/08/02 03:58:11;;;;;;;;;;;;;;;;;;5324943;28;19939;-71
2023/08/02 04:00:42;;;;;;;;;;;;;;;;;;5325253;28;19910;-71
2023/08/02 04:03:13;;;;;;;;;;;;;;;;;;5325754;28;19916;-71
2023/08/02 04:05:44;;;;;;;;;;;;;;;;;;5324421;28;19957;-71
2023/08/02 04:08:15;;;;;;;;;;;;;;;;;;5325551;28;19904;-71
2023/08/02 04:10:46;;;;;;;;;;;;;;;;;;5324745;28;19942;-71
2023/08/02 04:13:18;;;;;;;;;;;;;;;;;;5325001;28;19904;-71
2023/08/02 04:15:49;;;;;;;;;;;;;;;;;;5324870;28;20453;-71
2023/08/02 04:18:20;;;;;;;;;;;;;;;;;;5324541;28;19904;-71
2023/08/02 04:20:51;;;;;;;;;;;;;;;;;;5324462;28;19989;-71
2023/08/02 04:23:22;;;;;;;;;;;;;;;;;;5324991;28;19939;-71
2023/08/02 04:25:53;;;;;;;;;;;;;;;;;;5323630;28;19966;-71
2023/08/02 04:28:24;;;;;;;;;;;;;;;;;;5324752;28;20381;-71
2023/08/02 04:30:56;;;;;;;;;;;;;;;;;;5324702;28;20350;-71
2023/08/02 04:33:27;;;;;;;;;;;;;;;;;;5323665;28;19923;-71
2023/08/02 04:35:58;;;;;;;;;;;;;;;;;;5324650;28;19918;-71
2023/08/02 04:38:29;;;;;;;;;;;;;;;;;;5324639;28;19903;-71
2023/08/02 04:41:00;;;;;;;;;;;;;;;;;;5324083;28;19953;-71
2023/08/02 04:43:31;;;;;;;;;;;;;;;;;;5324270;28;19904;-71
2023/08/02 04:46:03;;;;;;;;;;;;;;;;;;5324814;28;19994;-71
2023/08/02 04:48:34;;;;;;;;;;;;;;;;;;5323607;28;19923;-71
2023/08/02 04:51:05;;;;;;;;;;;;;;;;;;5324955;28;20414;-71
2023/08/02 04:53:36;;;;;;;;;;;;;;;;;;5323132;28;19910;-71
2023/08/02 04:56:07;;;;;;;;;;;;;;;;;;5323879;28;19966;-71
2023/08/02 04:58:38;;;;;;;;;;;;;;;;;;5323927;28;19904;-71
2023/08/02 05:01:10;;;;;;;;;;;;;;;;;;5324227;28;20399;-71
2023/08/02 05:03:41;;;;;;;;;;;;;;;;;;5324122;28;19911;-71
2023/08/02 05:06:12;;;;;;;;;;;;;;;;;;5324701;28;19903;-71
2023/08/02 05:08:43;;;;;;;;;;;;;;;;;;5323024;28;19976;-71
2023/08/02 05:11:14;;;;;;;;;;;;;;;;;;5324215;28;20382;-70
2023/08/02 05:13:45;;;;;;;;;;;;;;;;;;5324101;28;19903;-71
2023/08/02 05:16:16;;;;;;;;;;;;;;;;;;5323725;28;20350;-70
2023/08/02 05:18:47;;;;;;;;;;;;;;;;;;5323842;28;19918;-70
2023/08/02 05:21:19;;;;;;;;;;;;;;;;;;5324324;28;19903;-70
2023/08/02 05:23:50;;;;;;;;;;;;;;;;;;5323197;28;20345;-70
2023/08/02 05:26:21;;;;;;;;;;;;;;;;;;5324488;28;19904;-71
2023/08/02 05:28:52;;;;;;;;;;;;;;;;;;5323029;28;19904;-71
2023/08/02 05:31:25;;;;;;;;;;;;;;;;;;5324078;28;19907;-72
2023/08/02 05:33:56;;;;;;;;;;;;;;;;;;5323827;28;19927;-72
2023/08/02 05:36:27;;;;;;;;;;;;;;;;;;5323407;28;19911;-72
2023/08/02 05:38:58;;;;;;;;;;;;;;;;;;5324044;28;19903;-72
2023/08/02 05:41:29;;;;;;;;;;;;;;;;;;5323921;28;20358;-72
2023/08/02 05:44:00;;;;;;;;;;;;;;;;;;5323409;28;19938;-72
2023/08/02 05:46:31;;;;;;;;;;;;;;;;;;5323522;28;19983;-72
2023/08/02 05:49:02;;;;;;;;;;;;;;;;;;5324339;28;19904;-71
2023/08/02 05:51:33;;;;;;;;;;;;;;;;;;5322834;28;19914;-72
2023/08/02 05:54:05;;;;;;;;;;;;;;;;;;5324257;28;19903;-72
2023/08/02 05:56:36;;;;;;;;;;;;;;;;;;5323501;28;19911;-72
2023/08/02 05:59:07;;;;;;;;;;;;;;;;;;5323047;28;19904;-73
2023/08/02 06:01:38;;;;;;;;;;;;;;;;;;5303462;28;19911;-73
2023/08/02 06:04:09;;;;;;;;;;;;;;;;;;5319657;28;19933;-73
2023/08/02 06:06:40;;;;;;;;;;;;;;;;;;5325259;28;19957;-73
2023/08/02 06:09:13;;;;;;;;;;;;;;;;;;5327586;28;19903;-73
2023/08/02 06:11:44;;;;;;;;;;;;;;;;;;5325128;28;20014;-73
2023/08/02 06:14:15;;;;;;;;;;;;;;;;;;5326889;28;20417;-73
2023/08/02 06:16:46;;;;;;;;;;;;;;;;;;5326410;28;19911;-72
2023/08/02 06:19:17;;;;;;;;;;;;;;;;;;5327066;28;19911;-73
2023/08/02 06:21:48;;;;;;;;;;;;;;;;;;5327067;28;19907;-72
2023/08/02 06:24:21;;;;;;;;;;;;;;;;;;5327893;28;19903;-73
2023/08/02 06:26:52;;;;;;;;;;;;;;;;;;5326243;28;19957;-73
2023/08/02 06:29:23;;;;;;;;;;;;;;;;;;5327210;28;19911;-73
2023/08/02 06:31:54;;;;;;;;;;;;;;;;;;5326359;28;19949;-74
2023/08/02 06:34:25;;;;;;;;;;;;;;;;;;5326411;28;19919;-73
2023/08/02 06:36:56;;;;;;;;;;;;;;;;;;5302546;28;19997;-73
2023/08/02 06:39:28;;;;;;;;;;;;;;;;;;5304653;28;19949;-71
2023/08/02 06:41:59;;;;;;;;;;;;;;;;;;5305267;28;20347;-71
2023/08/02 06:44:30;;;;;;;;;;;;;;;;;;5305194;28;19904;-71
2023/08/02 06:47:01;;;;;;;;;;;;;;;;;;5303697;28;19911;-71
2023/08/02 06:49:32;;;;;;;;;;;;;;;;;;5304226;28;19955;-69
2023/08/02 06:52:03;;;;;;;;;;;;;;;;;;5304048;28;20411;-70
2023/08/02 06:54:35;;;;;;;;;;;;;;;;;;5304236;28;19947;-70
2023/08/02 06:57:06;;;;;;;;;;;;;;;;;;5305264;28;19912;-71
2023/08/02 06:59:37;;;;;;;;;;;;;;;;;;5309162;28;20382;-69
2023/08/02 07:02:09;;;;;;;;;;;;;;;;;;5325508;28;19934;-70
2023/08/02 07:04:40;;;;;;;;;;;;;;;;;;5326044;28;20341;-69
2023/08/02 07:07:11;;;;;;;;;;;;;;;;;;5325616;28;19904;-70
2023/08/02 07:09:42;;;;;;;;;;;;;;;;;;5325797;28;20394;-71
2023/08/02 07:12:13;;;;;;;;;;;;;;;;;;5326511;28;20343;-70
2023/08/02 07:14:44;;;;;;;;;;;;;;;;;;5324573;28;19994;-71
2023/08/02 07:17:16;;;;;;;;;;;;;;;;;;5325737;28;19998;-72
2023/08/02 07:19:47;;;;;;;;;;;;;;;;;;5325516;28;19908;-70
2023/08/02 07:22:18;;;;;;;;;;;;;;;;;;5325071;28;19904;-70
2023/08/02 07:24:49;;;;;;;;;;;;;;;;;;5325610;28;20072;-71
2023/08/02 07:27:20;;;;;;;;;;;;;;;;;;5326366;28;19949;-71
2023/08/02 07:29:52;;;;;;;;;;;;;;;;;;5324635;28;19948;-71
2023/08/02 07:32:25;;;;;;;;;;;;;;;;;;5326252;28;20257;-71
2023/08/02 07:34:56;;;;;;;;;;;;;;;;;;5325169;28;19919;-71
2023/08/02 07:37:27;;;;;;;;;;;;;;;;;;5323970;28;19915;-70
2023/08/02 07:39:58;;;;;;;;;;;;;;;;;;5325740;28;19910;-71
2023/08/02 07:42:29;;;;;;;;;;;;;;;;;;5324341;28;19904;-71
2023/08/02 07:45:01;;;;;;;;;;;;;;;;;;5325772;28;19904;-71
2023/08/02 07:47:32;;;;;;;;;;;;;;;;;;5325201;28;19911;-71
2023/08/02 07:50:04;;;;;;;;;;;;;;;;;;5324954;28;19907;-71
2023/08/02 07:52:35;;;;;;;;;;;;;;;;;;5324915;28;19995;-71
2023/08/02 07:55:06;;;;;;;;;;;;;;;;;;5325629;28;19908;-71
2023/08/02 07:57:37;;;;;;;;;;;;;;;;;;5324326;28;19904;-71
2023/08/02 08:00:08;;;;;;;;;;;;;;;;;;5325710;28;19911;-72
2023/08/02 08:02:39;;;;;;;;;;;;;;;;;;5325056;28;19957;-71
2023/08/02 08:05:11;;;;;;;;;;;;;;;;;;5324563;28;19964;-69
2023/08/02 08:07:42;;;;;;;;;;;;;;;;;;5324995;28;20770;-73
2023/08/02 08:10:13;;;;;;;;;;;;;;;;;;5325282;28;19911;-71
2023/08/02 08:12:44;;;;;;;;;;;;;;;;;;5313643;28;19907;-72
2023/08/02 08:15:15;;;;;;;;;;;;;;;;;;5306238;28;19912;-70
2023/08/02 08:17:46;;;;;;;;;;;;;;;;;;5302450;28;19915;-69
2023/08/02 08:20:17;;;;;;;;;;;;;;;;;;5303963;28;19904;-70
2023/08/02 08:22:48;;;;;;;;;;;;;;;;;;5303321;28;19908;-70
2023/08/02 08:25:19;;;;;;;;;;;;;;;;;;5303061;28;20040;-70
2023/08/02 08:27:51;;;;;;;;;;;;;;;;;;5302178;28;20010;-70
2023/08/02 08:30:22;;;;;;;;;;;;;;;;;;5302480;28;19991;-69
2023/08/02 08:32:53;;;;;;;;;;;;;;;;;;5302174;28;19915;-69
2023/08/02 08:35:24;;;;;;;;;;;;;;;;;;5303210;28;19920;-70
2023/08/02 08:37:55;;;;;;;;;;;;;;;;;;5303253;28;20011;-70
2023/08/02 08:40:26;;;;;;;;;;;;;;;;;;5302585;28;19904;-69
2023/08/02 08:42:57;;;;;;;;;;;;;;;;;;5303440;28;19911;-69
2023/08/02 08:45:29;;;;;;;;;;;;;;;;;;5302994;28;19904;-69
2023/08/02 08:48:00;;;;;;;;;;;;;;;;;;5302560;28;19904;-72
2023/08/02 08:50:31;;;;;;;;;;;;;;;;;;5302930;28;20251;-69
2023/08/02 08:53:02;;;;;;;;;;;;;;;;;;5302556;28;19919;-69
2023/08/02 08:55:33;;;;;;;;;;;;;;;;;;5302741;28;20336;-70
2023/08/02 08:58:04;;;;;;;;;;;;;;;;;;5303360;28;19961;-71
2023/08/02 09:00:35;;;;;;;;;;;;;;;;;;5302088;28;19904;-70
2023/08/02 09:03:06;;;;;;;;;;;;;;;;;;5303232;28;19904;-70
2023/08/02 09:05:37;;;;;;;;;;;;;;;;;;5302688;28;19956;-71
2023/08/02 09:08:09;;;;;;;;;;;;;;;;;;5302509;28;19911;-71
2023/08/02 09:10:40;;;;;;;;;;;;;;;;;;5302649;28;19904;-70
2023/08/02 09:13:11;;;;;;;;;;;;;;;;;;5303359;28;20394;-70
2023/08/02 09:15:42;;;;;;;;;;;;;;;;;;5301939;28;20015;-70
2023/08/02 09:18:13;;;;;;;;;;;;;;;;;;5303356;28;20020;-70
2023/08/02 09:20:44;;;;;;;;;;;;;;;;;;5301820;28;19965;-70
2023/08/02 09:23:15;;;;;;;;;;;;;;;;;;5303099;28;20002;-70
2023/08/02 09:25:46;;;;;;;;;;;;;;;;;;5302494;28;19904;-70
2023/08/02 09:28:18;;;;;;;;;;;;;;;;;;5302273;28;19904;-70
2023/08/02 09:30:49;;;;;;;;;;;;;;;;;;5302400;28;19908;-69
2023/08/02 09:33:20;;;;;;;;;;;;;;;;;;5302950;28;19916;-69
2023/08/02 09:35:51;;;;;;;;;;;;;;;;;;5301356;28;19912;-70
2023/08/02 09:38:22;;;;;;;;;;;;;;;;;;5302950;28;19931;-70
2023/08/02 09:40:53;;;;;;;;;;;;;;;;;;5303322;28;20038;-70
2023/08/02 09:43:24;;;;;;;;;;;;;;;;;;5305968;28;19994;-75
2023/08/02 09:45:56;;;;;;;;;;;;;;;;;;5306826;28;19930;-69
2023/08/02 09:48:27;;;;;;;;;;;;;;;;;;5306668;28;20320;-69
2023/08/02 09:51:03;;;;;;;;;;;;;;;;;;5306135;28;20283;-69
2023/08/02 09:53:34;;;;;;;;;;;;;;;;;;5306350;28;19908;-71
2023/08/02 09:56:05;;;;;;;;;;;;;;;;;;5306023;28;20415;-71
2023/08/02 09:58:36;;;;;;;;;;;;;;;;;;5306172;28;19904;-71
2023/08/02 10:01:07;;;;;;;;;;;;;;;;;;5306941;28;19973;-70
2023/08/02 10:03:38;;;;;;;;;;;;;;;;;;5305692;28;19904;-71
2023/08/02 10:06:09;;;;;;;;;;;;;;;;;;5306633;28;19904;-71
2023/08/02 10:08:40;;;;;;;;;;;;;;;;;;5306153;28;20369;-71
2023/08/02 10:11:11;;;;;;;;;;;;;;;;;;5306076;28;19908;-71
2023/08/02 10:13:43;;;;;;;;;;;;;;;;;;5305967;28;19950;-71
2023/08/02 10:16:15;;;;;;;;;;;;;;;;;;5306659;28;20027;-71
2023/08/02 10:18:46;;;;;;;;;;;;;;;;;;5305141;28;19904;-71
2023/08/02 10:21:17;;;;;;;;;;;;;;;;;;5306426;28;19912;-71
2023/08/02 10:23:48;;;;;;;;;;;;;;;;;;5305741;28;19911;-71
2023/08/02 10:26:19;;;;;;;;;;;;;;;;;;5305889;28;19904;-71
2023/08/02 10:28:50;;;;;;;;;;;;;;;;;;5305770;28;19908;-71
2023/08/02 10:31:22;;;;;;;;;;;;;;;;;;5305752;28;20748;-71
2023/08/02 10:33:53;;;;;;;;;;;;;;;;;;5305367;28;19969;-70
2023/08/02 10:36:24;;;;;;;;;;;;;;;;;;5306153;28;20010;-71
2023/08/02 10:38:55;;;;;;;;;;;;;;;;;;5305332;28;19908;-71
2023/08/02 10:41:27;;;;;;;;;;;;;;;;;;5305760;28;19904;-71
2023/08/02 10:44:00;;;;;;;;;;;;;;;;;;5305604;28;20378;-70
2023/08/02 10:46:32;;;;;;;;;;;;;;;;;;5304585;28;19984;-71
2023/08/02 10:49:03;;;;;;;;;;;;;;;;;;5306070;28;19990;-70
2023/08/02 10:51:37;;;;;;;;;;;;;;;;;;5305327;28;20468;-71
2023/08/02 10:54:08;;;;;;;;;;;;;;;;;;5305048;28;19904;-70
2023/08/02 10:56:39;;;;;;;;;;;;;;;;;;5305225;28;19918;-70
2023/08/02 10:59:10;;;;;;;;;;;;;;;;;;5305314;28;19912;-70
2023/08/02 11:01:41;;;;;;;;;;;;;;;;;;5304953;28;19912;-70
2023/08/02 11:04:12;;;;;;;;;;;;;;;;;;5305801;28;20307;-70
2023/08/02 11:06:43;;;;;;;;;;;;;;;;;;5304148;28;19908;-71
2023/08/02 11:09:14;;;;;;;;;;;;;;;;;;5305473;28;20277;-70
2023/08/02 11:11:46;;;;;;;;;;;;;;;;;;5304818;28;19908;-72
2023/08/02 11:14:17;;;;;;;;;;;;;;;;;;5304799;28;19904;-72
2023/08/02 11:16:48;;;;;;;;;;;;;;;;;;5304944;28;19919;-71
2023/08/02 11:19:20;;;;;;;;;;;;;;;;;;5305552;28;20275;-72
2023/08/02 11:21:51;;;;;;;;;;;;;;;;;;5303720;28;19911;-71
2023/08/02 11:24:22;;;;;;;;;;;;;;;;;;5305145;28;19904;-71
2023/08/02 11:26:54;;;;;;;;;;;;;;;;;;5304649;28;20424;-71
2023/08/02 11:29:25;;;;;;;;;;;;;;;;;;5304077;28;19998;-72
2023/08/02 11:31:58;;;;;;;;;;;;;;;;;;5304724;28;19904;-71
2023/08/02 11:34:29;;;;;;;;;;;;;;;;;;5303506;28;19916;-71
2023/08/02 11:37:00;;;;;;;;;;;;;;;;;;5304866;28;20362;-71
2023/08/02 11:39:31;;;;;;;;;;;;;;;;;;5304360;28;19904;-72
2023/08/02 11:42:02;;;;;;;;;;;;;;;;;;5304063;28;19933;-72
2023/08/02 11:44:33;;;;;;;;;;;;;;;;;;5304066;28;19904;-71
2023/08/02 11:47:04;;;;;;;;;;;;;;;;;;5304712;28;20251;-71
2023/08/02 11:49:36;;;;;;;;;;;;;;;;;;5303258;28;19911;-72
2023/08/02 11:52:07;;;;;;;;;;;;;;;;;;5304683;28;19904;-71
2023/08/02 11:54:38;;;;;;;;;;;;;;;;;;5303880;28;19904;-71
2023/08/02 11:57:09;;;;;;;;;;;;;;;;;;5303713;28;19911;-72
2023/08/02 11:59:42;;;;;;;;;;;;;;;;;;5303996;28;19911;-71
2023/08/02 12:02:13;;;;;;;;;;;;;;;;;;5304345;28;19998;-71
2023/08/02 12:04:44;;;;;;;;;;;;;;;;;;5302653;28;20069;-71
2023/08/02 12:07:15;;;;;;;;;;;;;;;;;;5304357;28;19978;-71
2023/08/02 12:09:48;;;;;;;;;;;;;;;;;;5302994;28;20046;-71
2023/08/02 12:12:19;;;;;;;;;;;;;;;;;;5304142;28;19957;-71
2023/08/02 12:14:50;;;;;;;;;;;;;;;;;;5303598;28;20403;-71
2023/08/02 12:17:21;;;;;;;;;;;;;;;;;;5303438;28;20362;-70
2023/08/02 12:19:52;;;;;;;;;;;;;;;;;;5303347;28;19911;-70
2023/08/02 12:22:23;;;;;;;;;;;;;;;;;;5303635;28;19910;-69
2023/08/02 12:24:54;;;;;;;;;;;;;;;;;;5302754;28;19959;-70
2023/08/02 12:27:25;;;;;;;;;;;;;;;;;;5303786;28;20324;-70
2023/08/02 12:29:57;;;;;;;;;;;;;;;;;;5303106;28;19904;-70
2023/08/02 12:32:28;;;;;;;;;;;;;;;;;;5302744;28;19957;-69
2023/08/02 12:34:59;;;;;;;;;;;;;;;;;;5302986;28;19969;-70
2023/08/02 12:37:30;;;;;;;;;;;;;;;;;;5302898;28;19915;-70
2023/08/02 12:40:01;;;;;;;;;;;;;;;;;;5303124;28;19927;-69
2023/08/02 12:42:32;;;;;;;;;;;;;;;;;;5303187;28;19904;-69
2023/08/02 12:45:03;;;;;;;;;;;;;;;;;;5302372;28;19911;-69
2023/08/02 12:47:34;;;;;;;;;;;;;;;;;;5302809;28;19934;-71
2023/08/02 12:50:06;;;;;;;;;;;;;;;;;;5303249;28;20457;-69
2023/08/02 12:52:37;;;;;;;;;;;;;;;;;;5302077;28;19910;-71
2023/08/02 12:55:08;;;;;;;;;;;;;;;;;;5303346;28;20351;-71
2023/08/02 12:57:39;;;;;;;;;;;;;;;;;;5302677;28;19915;-72
2023/08/02 13:00:11;;;;;;;;;;;;;;;;;;5297425;28;19911;-71
2023/08/02 13:02:42;;;;;;;;;;;;;;;;;;5301426;28;19904;-71
2023/08/02 13:05:13;;;;;;;;;;;;;;;;;;5304485;28;20053;-70
2023/08/02 13:07:44;;;;;;;;;;;;;;;;;;5300154;28;19994;-70
2023/08/02 13:10:15;;;;;;;;;;;;;;;;;;5301423;28;19904;-71
2023/08/02 13:12:46;;;;;;;;;;;;;;;;;;5300705;28;19908;-70
2023/08/02 13:15:18;;;;;;;;;;;;;;;;;;5300092;28;20295;-70
2023/08/02 13:17:49;;;;;;;;;;;;;;;;;;5301356;28;20414;-71
2023/08/02 13:20:20;;;;;;;;;;;;;;;;;;5300850;28;19942;-71
2023/08/02 13:22:51;;;;;;;;;;;;;;;;;;5301431;28;19908;-70
2023/08/02 13:25:22;;;;;;;;;;;;;;;;;;5301968;28;19908;-70
2023/08/02 13:27:53;;;;;;;;;;;;;;;;;;5300852;28;19915;-69
2023/08/02 13:30:24;;;;;;;;;;;;;;;;;;5300924;28;19908;-69
2023/08/02 13:32:56;;;;;;;;;;;;;;;;;;5301075;28;20301;-69
2023/08/02 13:35:27;;;;;;;;;;;;;;;;;;5300989;28;19916;-69
2023/08/02 13:37:58;;;;;;;;;;;;;;;;;;5301863;28;19999;-70
2023/08/02 13:40:29;;;;;;;;;;;;;;;;;;5301117;28;19911;-70
2023/08/02 13:43:00;;;;;;;;;;;;;;;;;;5301169;28;19904;-70
2023/08/02 13:45:32;;;;;;;;;;;;;;;;;;5301108;28;20376;-70
2023/08/02 13:48:03;;;;;;;;;;;;;;;;;;5300985;28;20385;-70
2023/08/02 13:50:37;;;;;;;;;;;;;;;;;;5298914;28;19915;-70
2023/08/02 13:53:08;;;;;;;;;;;;;;;;;;5301246;28;19908;-70
2023/08/02 13:55:40;;;;;;;;;;;;;;;;;;5300538;28;20278;-71
2023/08/02 13:58:11;;;;;;;;;;;;;;;;;;5301616;28;19919;-69
2023/08/02 14:00:42;;;;;;;;;;;;;;;;;;5301322;28;19908;-69
2023/08/02 14:03:13;;;;;;;;;;;;;;;;;;5301352;28;19911;-69
2023/08/02 14:05:45;;;;;;;;;;;;;;;;;;5301883;28;19908;-72
2023/08/02 14:08:16;;;;;;;;;;;;;;;;;;5302328;28;19911;-70
2023/08/02 14:10:47;;;;;;;;;;;;;;;;;;5299685;28;19935;-70
2023/08/02 14:13:18;;;;;;;;;;;;;;;;;;5300896;28;19904;-70
2023/08/02 14:15:49;;;;;;;;;;;;;;;;;;5301917;28;20383;-70
2023/08/02 14:18:20;;;;;;;;;;;;;;;;;;5301717;28;20018;-70
2023/08/02 14:20:51;;;;;;;;;;;;;;;;;;5301885;28;20023;-71
2023/08/02 14:23:22;;;;;;;;;;;;;;;;;;5301693;28;20002;-71
2023/08/02 14:25:53;;;;;;;;;;;;;;;;;;5302178;28;19904;-71
2023/08/02 14:28:25;;;;;;;;;;;;;;;;;;5304897;28;19908;-71
2023/08/02 14:30:57;;;;;;;;;;;;;;;;;;5305097;28;19911;-70
2023/08/02 14:33:28;;;;;;;;;;;;;;;;;;5305663;28;19916;-70
2023/08/02 14:35:59;;;;;;;;;;;;;;;;;;5305973;28;20266;-71
2023/08/02 14:38:32;;;;;;;;;;;;;;;;;;5304565;28;19904;-71
2023/08/02 14:41:03;;;;;;;;;;;;;;;;;;5306252;28;19904;-71
2023/08/02 14:43:35;;;;;;;;;;;;;;;;;;5305544;28;19908;-70
2023/08/02 14:46:06;;;;;;;;;;;;;;;;;;5305237;28;19907;-70
2023/08/02 14:48:38;;;;;;;;;;;;;;;;;;5305341;28;19904;-71
2023/08/02 14:51:09;;;;;;;;;;;;;;;;;;5306053;28;19957;-69
2023/08/02 14:53:42;;;;;;;;;;;;;;;;;;5304712;28;19904;-70
2023/08/02 14:56:13;;;;;;;;;;;;;;;;;;5306042;28;19912;-70
2023/08/02 14:58:44;;;;;;;;;;;;;;;;;;5304262;28;19903;-69
2023/08/02 15:01:15;;;;;;;;;;;;;;;;;;5305589;28;19904;-69
2023/08/02 15:03:46;;;;;;;;;;;;;;;;;;5305149;28;20262;-70
2023/08/02 15:06:17;;;;;;;;;;;;;;;;;;5304810;28;19930;-69
2023/08/02 15:08:48;;;;;;;;;;;;;;;;;;5304939;28;20421;-69
2023/08/02 15:11:20;;;;;;;;;;;;;;;;;;5305443;28;19915;-69
2023/08/02 15:13:51;;;;;;;;;;;;;;;;;;5304357;28;19908;-70
2023/08/02 15:16:22;;;;;;;;;;;;;;;;;;5304910;28;19912;-70
2023/08/02 15:18:53;;;;;;;;;;;;;;;;;;5304964;28;19911;-70
2023/08/02 15:21:24;;;;;;;;;;;;;;;;;;5304225;28;19904;-70
2023/08/02 15:23:55;;;;;;;;;;;;;;;;;;5304884;28;19904;-71
2023/08/02 15:26:27;;;;;;;;;;;;;;;;;;5304663;28;20004;-70
2023/08/02 15:28:58;;;;;;;;;;;;;;;;;;5304715;28;19911;-70
2023/08/02 15:31:29;;;;;;;;;;;;;;;;;;5304635;28;19904;-70
2023/08/02 15:34:00;;;;;;;;;;;;;;;;;;5304048;28;20350;-71
2023/08/02 15:36:31;;;;;;;;;;;;;;;;;;5304527;28;19919;-70
2023/08/02 15:39:03;;;;;;;;;;;;;;;;;;5304203;28;19904;-71
2023/08/02 15:41:34;;;;;;;;;;;;;;;;;;5303872;28;19908;-70
2023/08/02 15:44:05;;;;;;;;;;;;;;;;;;5304842;28;20040;-69
2023/08/02 15:46:36;;;;;;;;;;;;;;;;;;5304041;28;20003;-69
2023/08/02 15:49:08;;;;;;;;;;;;;;;;;;5304163;28;19904;-69
2023/08/02 15:51:41;;;;;;;;;;;;;;;;;;5304081;28;19904;-69
2023/08/02 15:54:12;;;;;;;;;;;;;;;;;;5304515;28;19943;-69
2023/08/02 15:56:43;;;;;;;;;;;;;;;;;;5303295;28;20463;-69
2023/08/02 15:59:15;;;;;;;;;;;;;;;;;;5304405;28;19946;-69
2023/08/02 16:01:48;;;;;;;;;;;;;;;;;;5303306;28;19908;-69
2023/08/02 16:04:19;;;;;;;;;;;;;;;;;;5304328;28;19950;-69
2023/08/02 16:06:51;;;;;;;;;;;;;;;;;;5303810;28;19944;-69
2023/08/02 16:09:22;;;;;;;;;;;;;;;;;;5315684;28;20358;-69
2023/08/02 16:11:53;;;;;;;;;;;;;;;;;;5324771;28;20315;-68
2023/08/02 16:14:25;;;;;;;;;;;;;;;;;;5325287;28;19990;-69
2023/08/02 16:16:56;;;;;;;;;;;;;;;;;;5324111;28;19920;-68
2023/08/02 16:19:27;;;;;;;;;;;;;;;;;;5325213;28;20354;-69
2023/08/02 16:21:58;;;;;;;;;;;;;;;;;;5324757;28;19904;-69
2023/08/02 16:24:29;;;;;;;;;;;;;;;;;;5324253;28;19904;-68
2023/08/02 16:27:00;;;;;;;;;;;;;;;;;;5324615;28;19910;-68
2023/08/02 16:29:31;;;;;;;;;;;;;;;;;;5324603;28;19903;-68
2023/08/02 16:32:03;;;;;;;;;;;;;;;;;;5324368;28;19904;-68
2023/08/02 16:34:34;;;;;;;;;;;;;;;;;;5324011;28;19992;-68
2023/08/02 16:37:05;;;;;;;;;;;;;;;;;;5323996;28;19923;-68
2023/08/02 16:39:36;;;;;;;;;;;;;;;;;;5324470;28;19931;-69
2023/08/02 16:42:10;;;;;;;;;;;;;;;;;;5324636;28;19920;-69
2023/08/02 16:44:41;;;;;;;;;;;;;;;;;;5323492;28;19942;-69
2023/08/02 16:47:12;;;;;;;;;;;;;;;;;;5325220;28;19935;-70
2023/08/02 16:49:43;;;;;;;;;;;;;;;;;;5323929;28;19911;-69
2023/08/02 16:52:14;;;;;;;;;;;;;;;;;;5324129;28;19907;-70
2023/08/02 16:54:45;;;;;;;;;;;;;;;;;;5324314;28;19910;-69
2023/08/02 16:57:16;;;;;;;;;;;;;;;;;;5324560;28;19919;-69
2023/08/02 16:59:48;;;;;;;;;;;;;;;;;;5323297;28;19933;-69
2023/08/02 17:02:19;;;;;;;;;;;;;;;;;;5324908;28;19907;-68
2023/08/02 17:04:50;;;;;;;;;;;;;;;;;;5324094;28;19968;-68
2023/08/02 17:07:21;;;;;;;;;;;;;;;;;;5323870;28;19899;-68
2023/08/02 17:09:52;;;;;;;;;;;;;;;;;;5323768;28;20270;-70
2023/08/02 17:12:23;;;;;;;;;;;;;;;;;;5323691;28;19912;-72